sensor_id;sensor_type;location;lat;lon;timestamp;temperature;humidity
46117;DHT22;32591;48.102;11.772;2023-01-24T00:00:54;1.30;99.90
46117;DHT22;32591;48.102;11.772;2023-01-24T00:03:21;1.40;99.90
46117;DHT22;32591;48.102;11.772;2023-01-24T00:05:48;1.40;99.90
46117;DHT22;32591;48.102;11.772;2023-01-24T00:08:15;1.50;99.90
46117;DHT22;32591;48.102;11.772;2023-01-24T00:10:46;1.50;99.90
46117;DHT22;32591;48.102;11.772;2023-01-24T00:13:13;1.50;99.90
46117;DHT22;32591;48.102;11.772;2023-01-24T00:15:41;1.50;99.90
46117;DHT22;32591;48.102;11.772;2023-01-24T00:18:08;1.50;99.90
46117;DHT22;32591;48.102;11.772;2023-01-24T00:20:35;1.50;99.90
46117;DHT22;32591;48.102;11.772;2023-01-24T00:23:02;1.60;99.90
46117;DHT22;32591;48.102;11.772;2023-01-24T00:25:29;1.50;99.90
46117;DHT22;32591;48.102;11.772;2023-01-24T00:27:57;1.60;99.90
46117;DHT22;32591;48.102;11.772;2023-01-24T00:30:23;1.50;99.90
46117;DHT22;32591;48.102;11.772;2023-01-24T00:32:50;1.60;99.90
46117;DHT22;32591;48.102;11.772;2023-01-24T00:35:17;1.50;99.90
46117;DHT22;32591;48.102;11.772;2023-01-24T00:37:44;1.50;99.90
46117;DHT22;32591;48.102;11.772;2023-01-24T00:40:11;1.50;99.90
46117;DHT22;32591;48.102;11.772;2023-01-24T00:42:38;1.50;99.90
46117;DHT22;32591;48.102;11.772;2023-01-24T00:45:06;1.60;99.90
46117;DHT22;32591;48.102;11.772;2023-01-24T00:47:33;1.60;99.90
46117;DHT22;32591;48.102;11.772;2023-01-24T00:50:00;1.60;99.90
46117;DHT22;32591;48.102;11.772;2023-01-24T00:52:27;1.70;99.90
46117;DHT22;32591;48.102;11.772;2023-01-24T00:54:54;1.70;99.90
46117;DHT22;32591;48.102;11.772;2023-01-24T00:57:21;1.60;99.90
46117;DHT22;32591;48.102;11.772;2023-01-24T00:59:49;1.50;99.90
46117;DHT22;32591;48.102;11.772;2023-01-24T01:02:17;1.50;99.90
46117;DHT22;32591;48.102;11.772;2023-01-24T01:04:44;1.50;99.90
46117;DHT22;32591;48.102;11.772;2023-01-24T01:07:11;1.50;99.90
46117;DHT22;32591;48.102;11.772;2023-01-24T01:09:38;1.40;99.90
46117;DHT22;32591;48.102;11.772;2023-01-24T01:12:05;1.40;99.90
46117;DHT22;32591;48.102;11.772;2023-01-24T01:14:31;1.40;99.90
46117;DHT22;32591;48.102;11.772;2023-01-24T01:16:58;1.40;99.90
46117;DHT22;32591;48.102;11.772;2023-01-24T01:19:26;1.40;99.90
46117;DHT22;32591;48.102;11.772;2023-01-24T01:21:53;1.50;99.90
46117;DHT22;32591;48.102;11.772;2023-01-24T01:24:20;1.60;99.90
46117;DHT22;32591;48.102;11.772;2023-01-24T01:26:47;1.50;99.90
46117;DHT22;32591;48.102;11.772;2023-01-24T01:29:14;1.50;99.90
46117;DHT22;32591;48.102;11.772;2023-01-24T01:31:40;1.40;99.90
46117;DHT22;32591;48.102;11.772;2023-01-24T01:34:07;1.40;99.90
46117;DHT22;32591;48.102;11.772;2023-01-24T01:36:36;1.40;99.90
46117;DHT22;32591;48.102;11.772;2023-01-24T01:39:03;1.40;99.90
46117;DHT22;32591;48.102;11.772;2023-01-24T01:41:29;1.40;99.90
46117;DHT22;32591;48.102;11.772;2023-01-24T01:43:56;1.50;99.90
46117;DHT22;32591;48.102;11.772;2023-01-24T01:46:41;1.50;99.90
46117;DHT22;32591;48.102;11.772;2023-01-24T01:49:14;1.50;99.90
46117;DHT22;32591;48.102;11.772;2023-01-24T01:51:47;1.50;99.90
46117;DHT22;32591;48.102;11.772;2023-01-24T01:54:16;1.50;99.90
46117;DHT22;32591;48.102;11.772;2023-01-24T01:56:45;1.60;99.90
46117;DHT22;32591;48.102;11.772;2023-01-24T01:59:16;1.50;99.90
46117;DHT22;32591;48.102;11.772;2023-01-24T02:01:45;1.50;99.90
46117;DHT22;32591;48.102;11.772;2023-01-24T02:04:13;1.50;99.90
46117;DHT22;32591;48.102;11.772;2023-01-24T02:06:48;1.50;99.90
46117;DHT22;32591;48.102;11.772;2023-01-24T02:09:18;1.50;99.90
46117;DHT22;32591;48.102;11.772;2023-01-24T02:11:47;1.50;99.90
46117;DHT22;32591;48.102;11.772;2023-01-24T02:14:17;1.40;99.90
46117;DHT22;32591;48.102;11.772;2023-01-24T02:17:03;1.50;99.90
46117;DHT22;32591;48.102;11.772;2023-01-24T02:19:35;1.40;99.90
46117;DHT22;32591;48.102;11.772;2023-01-24T02:22:13;1.40;99.90
46117;DHT22;32591;48.102;11.772;2023-01-24T02:24:45;1.50;99.90
46117;DHT22;32591;48.102;11.772;2023-01-24T02:27:19;1.50;99.90
46117;DHT22;32591;48.102;11.772;2023-01-24T02:29:46;1.60;99.90
46117;DHT22;32591;48.102;11.772;2023-01-24T02:32:13;1.50;99.90
46117;DHT22;32591;48.102;11.772;2023-01-24T02:34:41;1.50;99.90
46117;DHT22;32591;48.102;11.772;2023-01-24T02:37:10;1.50;99.90
46117;DHT22;32591;48.102;11.772;2023-01-24T02:39:40;1.40;99.90
46117;DHT22;32591;48.102;11.772;2023-01-24T02:42:12;1.40;99.90
46117;DHT22;32591;48.102;11.772;2023-01-24T02:44:43;1.40;99.90
46117;DHT22;32591;48.102;11.772;2023-01-24T02:49:38;1.40;99.90
46117;DHT22;32591;48.102;11.772;2023-01-24T02:52:06;1.40;99.90
46117;DHT22;32591;48.102;11.772;2023-01-24T02:54:51;1.40;99.90
46117;DHT22;32591;48.102;11.772;2023-01-24T02:57:18;1.40;99.90
46117;DHT22;32591;48.102;11.772;2023-01-24T03:00:05;1.40;99.90
46117;DHT22;32591;48.102;11.772;2023-01-24T03:02:32;1.40;99.90
46117;DHT22;32591;48.102;11.772;2023-01-24T03:05:00;1.50;99.90
46117;DHT22;32591;48.102;11.772;2023-01-24T03:07:26;1.40;99.90
46117;DHT22;32591;48.102;11.772;2023-01-24T03:10:07;1.40;99.90
46117;DHT22;32591;48.102;11.772;2023-01-24T03:12:35;1.40;99.90
46117;DHT22;32591;48.102;11.772;2023-01-24T03:15:21;1.40;99.90
46117;DHT22;32591;48.102;11.772;2023-01-24T03:18:06;1.40;99.90
46117;DHT22;32591;48.102;11.772;2023-01-24T03:20:50;1.40;99.90
46117;DHT22;32591;48.102;11.772;2023-01-24T03:23:35;1.40;99.90
46117;DHT22;32591;48.102;11.772;2023-01-24T03:26:19;1.40;99.90
46117;DHT22;32591;48.102;11.772;2023-01-24T03:29:04;1.40;99.90
46117;DHT22;32591;48.102;11.772;2023-01-24T03:31:50;1.40;99.90
46117;DHT22;32591;48.102;11.772;2023-01-24T03:34:35;1.40;99.90
46117;DHT22;32591;48.102;11.772;2023-01-24T03:37:17;1.50;99.90
46117;DHT22;32591;48.102;11.772;2023-01-24T03:40:09;1.50;99.90
46117;DHT22;32591;48.102;11.772;2023-01-24T03:42:37;1.40;99.90
46117;DHT22;32591;48.102;11.772;2023-01-24T03:45:13;1.40;99.90
46117;DHT22;32591;48.102;11.772;2023-01-24T03:47:45;1.50;99.90
46117;DHT22;32591;48.102;11.772;2023-01-24T03:50:30;1.60;99.90
46117;DHT22;32591;48.102;11.772;2023-01-24T03:53:16;1.60;99.90
46117;DHT22;32591;48.102;11.772;2023-01-24T03:55:43;1.50;99.90
46117;DHT22;32591;48.102;11.772;2023-01-24T03:58:10;1.60;99.90
46117;DHT22;32591;48.102;11.772;2023-01-24T04:00:38;1.10;99.90
46117;DHT22;32591;48.102;11.772;2023-01-24T04:03:07;1.60;99.90
46117;DHT22;32591;48.102;11.772;2023-01-24T04:05:34;1.60;99.90
46117;DHT22;32591;48.102;11.772;2023-01-24T04:08:01;1.60;99.90
46117;DHT22;32591;48.102;11.772;2023-01-24T04:10:28;1.60;99.90
46117;DHT22;32591;48.102;11.772;2023-01-24T04:12:55;1.50;99.90
46117;DHT22;32591;48.102;11.772;2023-01-24T04:15:23;1.50;99.90
46117;DHT22;32591;48.102;11.772;2023-01-24T04:17:53;1.50;99.90
46117;DHT22;32591;48.102;11.772;2023-01-24T04:20:23;1.60;99.90
46117;DHT22;32591;48.102;11.772;2023-01-24T04:22:50;1.60;99.90
46117;DHT22;32591;48.102;11.772;2023-01-24T04:25:17;1.60;99.90
46117;DHT22;32591;48.102;11.772;2023-01-24T04:27:44;1.60;99.90
46117;DHT22;32591;48.102;11.772;2023-01-24T04:30:11;1.60;99.90
46117;DHT22;32591;48.102;11.772;2023-01-24T04:32:39;1.60;99.90
46117;DHT22;32591;48.102;11.772;2023-01-24T04:35:06;1.60;99.90
46117;DHT22;32591;48.102;11.772;2023-01-24T04:37:35;1.60;99.90
46117;DHT22;32591;48.102;11.772;2023-01-24T04:40:02;1.60;99.90
46117;DHT22;32591;48.102;11.772;2023-01-24T04:42:29;1.50;99.90
46117;DHT22;32591;48.102;11.772;2023-01-24T04:44:55;1.50;99.90
46117;DHT22;32591;48.102;11.772;2023-01-24T04:47:22;1.50;99.90
46117;DHT22;32591;48.102;11.772;2023-01-24T04:49:49;1.50;99.90
46117;DHT22;32591;48.102;11.772;2023-01-24T04:52:16;1.50;99.90
46117;DHT22;32591;48.102;11.772;2023-01-24T04:54:44;1.50;99.90
46117;DHT22;32591;48.102;11.772;2023-01-24T04:57:11;1.50;99.90
46117;DHT22;32591;48.102;11.772;2023-01-24T04:59:38;1.50;99.90
46117;DHT22;32591;48.102;11.772;2023-01-24T05:02:04;1.50;99.90
46117;DHT22;32591;48.102;11.772;2023-01-24T05:04:31;1.50;99.90
46117;DHT22;32591;48.102;11.772;2023-01-24T05:06:58;1.50;99.90
46117;DHT22;32591;48.102;11.772;2023-01-24T05:09:25;1.50;99.90
46117;DHT22;32591;48.102;11.772;2023-01-24T05:11:53;1.60;99.90
46117;DHT22;32591;48.102;11.772;2023-01-24T05:14:21;1.60;99.90
46117;DHT22;32591;48.102;11.772;2023-01-24T05:16:47;1.50;99.90
46117;DHT22;32591;48.102;11.772;2023-01-24T05:19:14;1.60;99.90
46117;DHT22;32591;48.102;11.772;2023-01-24T05:21:41;1.60;99.90
46117;DHT22;32591;48.102;11.772;2023-01-24T05:24:08;1.70;99.90
46117;DHT22;32591;48.102;11.772;2023-01-24T05:26:35;1.70;99.90
46117;DHT22;32591;48.102;11.772;2023-01-24T05:29:03;1.70;99.90
46117;DHT22;32591;48.102;11.772;2023-01-24T05:31:30;1.70;99.90
46117;DHT22;32591;48.102;11.772;2023-01-24T05:33:56;1.70;99.90
46117;DHT22;32591;48.102;11.772;2023-01-24T05:36:27;1.70;99.90
46117;DHT22;32591;48.102;11.772;2023-01-24T05:38:54;1.80;99.90
46117;DHT22;32591;48.102;11.772;2023-01-24T05:41:21;1.80;99.90
46117;DHT22;32591;48.102;11.772;2023-01-24T05:43:48;1.70;99.90
46117;DHT22;32591;48.102;11.772;2023-01-24T05:46:17;1.80;99.90
46117;DHT22;32591;48.102;11.772;2023-01-24T05:48:45;1.80;99.90
46117;DHT22;32591;48.102;11.772;2023-01-24T05:51:13;1.80;99.90
46117;DHT22;32591;48.102;11.772;2023-01-24T05:53:41;1.80;99.90
46117;DHT22;32591;48.102;11.772;2023-01-24T05:56:09;1.80;99.90
46117;DHT22;32591;48.102;11.772;2023-01-24T05:58:37;1.70;99.90
46117;DHT22;32591;48.102;11.772;2023-01-24T06:01:07;1.80;99.90
46117;DHT22;32591;48.102;11.772;2023-01-24T06:03:37;1.70;99.90
46117;DHT22;32591;48.102;11.772;2023-01-24T06:06:06;1.70;99.90
46117;DHT22;32591;48.102;11.772;2023-01-24T06:08:33;1.70;99.90
46117;DHT22;32591;48.102;11.772;2023-01-24T06:11:01;1.70;99.90
46117;DHT22;32591;48.102;11.772;2023-01-24T06:13:29;1.70;99.90
46117;DHT22;32591;48.102;11.772;2023-01-24T06:16:00;1.70;99.90
46117;DHT22;32591;48.102;11.772;2023-01-24T06:18:28;1.70;99.90
46117;DHT22;32591;48.102;11.772;2023-01-24T06:20:56;1.70;99.90
46117;DHT22;32591;48.102;11.772;2023-01-24T06:23:24;1.80;99.90
46117;DHT22;32591;48.102;11.772;2023-01-24T06:25:52;1.80;99.90
46117;DHT22;32591;48.102;11.772;2023-01-24T06:28:20;1.90;99.90
46117;DHT22;32591;48.102;11.772;2023-01-24T06:30:49;1.80;99.90
46117;DHT22;32591;48.102;11.772;2023-01-24T06:33:24;1.90;99.90
46117;DHT22;32591;48.102;11.772;2023-01-24T06:36:04;1.90;99.90
46117;DHT22;32591;48.102;11.772;2023-01-24T06:38:43;1.90;99.90
46117;DHT22;32591;48.102;11.772;2023-01-24T06:41:13;1.90;99.90
46117;DHT22;32591;48.102;11.772;2023-01-24T06:43:41;1.90;99.90
46117;DHT22;32591;48.102;11.772;2023-01-24T06:46:09;1.90;99.90
46117;DHT22;32591;48.102;11.772;2023-01-24T06:48:36;2.00;99.90
46117;DHT22;32591;48.102;11.772;2023-01-24T06:51:04;2.00;99.90
46117;DHT22;32591;48.102;11.772;2023-01-24T06:53:32;2.10;99.90
46117;DHT22;32591;48.102;11.772;2023-01-24T06:55:58;2.10;99.90
46117;DHT22;32591;48.102;11.772;2023-01-24T06:58:26;2.10;99.90
46117;DHT22;32591;48.102;11.772;2023-01-24T07:00:53;2.00;99.90
46117;DHT22;32591;48.102;11.772;2023-01-24T07:03:19;2.00;99.90
46117;DHT22;32591;48.102;11.772;2023-01-24T07:05:47;2.10;99.90
46117;DHT22;32591;48.102;11.772;2023-01-24T07:08:15;2.10;99.90
46117;DHT22;32591;48.102;11.772;2023-01-24T07:10:42;2.00;99.90
46117;DHT22;32591;48.102;11.772;2023-01-24T07:13:09;2.00;99.90
46117;DHT22;32591;48.102;11.772;2023-01-24T07:15:36;2.00;99.90
46117;DHT22;32591;48.102;11.772;2023-01-24T07:18:06;2.00;99.90
46117;DHT22;32591;48.102;11.772;2023-01-24T07:20:33;1.90;99.90
46117;DHT22;32591;48.102;11.772;2023-01-24T07:23:01;2.00;99.90
46117;DHT22;32591;48.102;11.772;2023-01-24T07:25:29;2.10;99.90
46117;DHT22;32591;48.102;11.772;2023-01-24T07:27:56;2.10;99.90
46117;DHT22;32591;48.102;11.772;2023-01-24T07:30:23;2.10;99.90
46117;DHT22;32591;48.102;11.772;2023-01-24T07:32:50;2.10;99.90
46117;DHT22;32591;48.102;11.772;2023-01-24T07:35:17;2.10;99.90
46117;DHT22;32591;48.102;11.772;2023-01-24T07:37:44;2.10;99.90
46117;DHT22;32591;48.102;11.772;2023-01-24T07:40:11;2.00;99.90
46117;DHT22;32591;48.102;11.772;2023-01-24T07:42:39;2.00;99.90
46117;DHT22;32591;48.102;11.772;2023-01-24T07:45:06;2.00;99.90
46117;DHT22;32591;48.102;11.772;2023-01-24T07:47:33;2.10;99.90
46117;DHT22;32591;48.102;11.772;2023-01-24T07:50:00;2.10;99.90
46117;DHT22;32591;48.102;11.772;2023-01-24T07:52:27;2.20;99.90
46117;DHT22;32591;48.102;11.772;2023-01-24T07:54:54;2.30;99.90
46117;DHT22;32591;48.102;11.772;2023-01-24T07:57:21;2.40;99.90
46117;DHT22;32591;48.102;11.772;2023-01-24T07:59:49;2.30;99.90
46117;DHT22;32591;48.102;11.772;2023-01-24T08:02:16;2.40;99.90
46117;DHT22;32591;48.102;11.772;2023-01-24T08:04:42;2.40;99.90
46117;DHT22;32591;48.102;11.772;2023-01-24T08:07:09;2.40;99.90
46117;DHT22;32591;48.102;11.772;2023-01-24T08:09:46;2.40;99.90
46117;DHT22;32591;48.102;11.772;2023-01-24T08:12:13;2.40;99.90
46117;DHT22;32591;48.102;11.772;2023-01-24T08:14:40;2.40;99.90
46117;DHT22;32591;48.102;11.772;2023-01-24T08:17:08;2.40;99.90
46117;DHT22;32591;48.102;11.772;2023-01-24T08:19:37;2.30;99.90
46117;DHT22;32591;48.102;11.772;2023-01-24T08:22:04;2.20;99.90
46117;DHT22;32591;48.102;11.772;2023-01-24T08:24:31;2.20;99.90
46117;DHT22;32591;48.102;11.772;2023-01-24T08:26:59;2.10;99.90
46117;DHT22;32591;48.102;11.772;2023-01-24T08:29:27;2.20;99.90
46117;DHT22;32591;48.102;11.772;2023-01-24T08:31:54;2.20;99.90
46117;DHT22;32591;48.102;11.772;2023-01-24T08:34:23;2.10;99.90
46117;DHT22;32591;48.102;11.772;2023-01-24T08:36:49;2.20;99.90
46117;DHT22;32591;48.102;11.772;2023-01-24T08:39:16;2.20;99.90
46117;DHT22;32591;48.102;11.772;2023-01-24T08:41:43;2.20;99.90
46117;DHT22;32591;48.102;11.772;2023-01-24T08:44:11;2.20;99.90
46117;DHT22;32591;48.102;11.772;2023-01-24T08:46:38;2.20;99.90
46117;DHT22;32591;48.102;11.772;2023-01-24T08:49:05;2.20;99.90
46117;DHT22;32591;48.102;11.772;2023-01-24T08:51:34;2.20;99.90
46117;DHT22;32591;48.102;11.772;2023-01-24T08:54:00;2.20;99.90
46117;DHT22;32591;48.102;11.772;2023-01-24T08:56:27;2.20;99.90
46117;DHT22;32591;48.102;11.772;2023-01-24T08:58:54;2.20;99.90
46117;DHT22;32591;48.102;11.772;2023-01-24T09:01:21;2.20;99.90
46117;DHT22;32591;48.102;11.772;2023-01-24T09:03:47;2.20;99.90
46117;DHT22;32591;48.102;11.772;2023-01-24T09:06:15;2.30;99.90
46117;DHT22;32591;48.102;11.772;2023-01-24T09:08:43;2.40;99.90
46117;DHT22;32591;48.102;11.772;2023-01-24T09:11:10;2.40;99.90
46117;DHT22;32591;48.102;11.772;2023-01-24T09:13:36;2.40;99.90
46117;DHT22;32591;48.102;11.772;2023-01-24T09:16:04;2.40;99.90
46117;DHT22;32591;48.102;11.772;2023-01-24T09:18:31;2.30;99.90
46117;DHT22;32591;48.102;11.772;2023-01-24T09:21:01;2.30;99.90
46117;DHT22;32591;48.102;11.772;2023-01-24T09:23:28;2.30;99.90
46117;DHT22;32591;48.102;11.772;2023-01-24T09:25:57;2.30;99.90
46117;DHT22;32591;48.102;11.772;2023-01-24T09:28:24;2.40;99.90
46117;DHT22;32591;48.102;11.772;2023-01-24T09:30:50;2.40;99.90
46117;DHT22;32591;48.102;11.772;2023-01-24T09:33:17;2.40;99.90
46117;DHT22;32591;48.102;11.772;2023-01-24T09:35:52;2.50;99.90
46117;DHT22;32591;48.102;11.772;2023-01-24T09:38:19;2.50;99.90
46117;DHT22;32591;48.102;11.772;2023-01-24T09:40:50;2.50;99.90
46117;DHT22;32591;48.102;11.772;2023-01-24T09:43:35;2.40;99.90
46117;DHT22;32591;48.102;11.772;2023-01-24T09:46:09;2.30;99.90
46117;DHT22;32591;48.102;11.772;2023-01-24T09:48:42;2.30;99.90
46117;DHT22;32591;48.102;11.772;2023-01-24T09:51:12;2.30;99.90
46117;DHT22;32591;48.102;11.772;2023-01-24T09:53:42;2.30;99.90
46117;DHT22;32591;48.102;11.772;2023-01-24T09:56:11;2.30;99.90
46117;DHT22;32591;48.102;11.772;2023-01-24T09:58:55;2.30;99.90
46117;DHT22;32591;48.102;11.772;2023-01-24T10:01:35;2.30;99.90
46117;DHT22;32591;48.102;11.772;2023-01-24T10:04:04;2.30;99.90
46117;DHT22;32591;48.102;11.772;2023-01-24T10:06:31;2.30;99.90
46117;DHT22;32591;48.102;11.772;2023-01-24T10:09:00;2.30;99.90
46117;DHT22;32591;48.102;11.772;2023-01-24T10:11:35;2.30;99.90
46117;DHT22;32591;48.102;11.772;2023-01-24T10:14:18;2.40;99.90
46117;DHT22;32591;48.102;11.772;2023-01-24T10:20:02;2.20;99.90
46117;DHT22;32591;48.102;11.772;2023-01-24T10:22:55;2.20;99.90
46117;DHT22;32591;48.102;11.772;2023-01-24T10:25:27;2.20;99.90
46117;DHT22;32591;48.102;11.772;2023-01-24T10:27:56;2.30;99.90
46117;DHT22;32591;48.102;11.772;2023-01-24T10:30:29;2.20;99.90
46117;DHT22;32591;48.102;11.772;2023-01-24T10:33:01;2.30;99.90
46117;DHT22;32591;48.102;11.772;2023-01-24T10:35:30;2.30;99.90
46117;DHT22;32591;48.102;11.772;2023-01-24T10:38:00;2.40;99.90
46117;DHT22;32591;48.102;11.772;2023-01-24T10:40:30;2.40;99.90
46117;DHT22;32591;48.102;11.772;2023-01-24T10:42:58;2.50;99.90
46117;DHT22;32591;48.102;11.772;2023-01-24T10:45:43;2.60;99.90
46117;DHT22;32591;48.102;11.772;2023-01-24T10:48:17;2.60;99.90
46117;DHT22;32591;48.102;11.772;2023-01-24T10:50:50;2.60;99.90
46117;DHT22;32591;48.102;11.772;2023-01-24T10:53:22;2.60;99.90
46117;DHT22;32591;48.102;11.772;2023-01-24T10:55:54;2.60;99.90
46117;DHT22;32591;48.102;11.772;2023-01-24T10:58:25;2.60;99.90
46117;DHT22;32591;48.102;11.772;2023-01-24T11:00:57;2.60;99.90
46117;DHT22;32591;48.102;11.772;2023-01-24T11:03:27;2.60;99.90
46117;DHT22;32591;48.102;11.772;2023-01-24T11:05:55;2.60;99.90
46117;DHT22;32591;48.102;11.772;2023-01-24T11:08:24;2.60;99.90
46117;DHT22;32591;48.102;11.772;2023-01-24T11:10:51;2.70;99.90
46117;DHT22;32591;48.102;11.772;2023-01-24T11:13:33;2.70;99.90
46117;DHT22;32591;48.102;11.772;2023-01-24T11:16:06;2.70;99.90
46117;DHT22;32591;48.102;11.772;2023-01-24T11:18:35;2.70;99.90
46117;DHT22;32591;48.102;11.772;2023-01-24T11:21:10;2.70;99.90
46117;DHT22;32591;48.102;11.772;2023-01-24T11:23:38;2.70;99.90
46117;DHT22;32591;48.102;11.772;2023-01-24T11:26:06;2.70;99.90
46117;DHT22;32591;48.102;11.772;2023-01-24T11:28:40;2.50;99.90
46117;DHT22;32591;48.102;11.772;2023-01-24T11:31:26;2.50;99.90
46117;DHT22;32591;48.102;11.772;2023-01-24T11:33:57;2.50;99.90
46117;DHT22;32591;48.102;11.772;2023-01-24T11:36:47;2.60;99.90
46117;DHT22;32591;48.102;11.772;2023-01-24T11:39:22;2.60;99.90
46117;DHT22;32591;48.102;11.772;2023-01-24T11:41:53;2.60;99.90
46117;DHT22;32591;48.102;11.772;2023-01-24T11:47:28;2.70;99.90
46117;DHT22;32591;48.102;11.772;2023-01-24T11:50:10;2.80;99.90
46117;DHT22;32591;48.102;11.772;2023-01-24T11:52:50;2.70;99.90
46117;DHT22;32591;48.102;11.772;2023-01-24T11:55:25;2.70;99.90
46117;DHT22;32591;48.102;11.772;2023-01-24T11:58:00;2.70;99.90
46117;DHT22;32591;48.102;11.772;2023-01-24T12:00:40;2.70;99.90
46117;DHT22;32591;48.102;11.772;2023-01-24T12:03:19;2.70;99.90
46117;DHT22;32591;48.102;11.772;2023-01-24T12:05:57;2.60;99.90
46117;DHT22;32591;48.102;11.772;2023-01-24T12:08:31;2.60;99.90
46117;DHT22;32591;48.102;11.772;2023-01-24T12:11:07;2.60;99.90
46117;DHT22;32591;48.102;11.772;2023-01-24T12:13:39;2.70;99.90
46117;DHT22;32591;48.102;11.772;2023-01-24T12:16:16;2.70;99.90
46117;DHT22;32591;48.102;11.772;2023-01-24T12:21:37;2.70;99.90
46117;DHT22;32591;48.102;11.772;2023-01-24T12:24:05;2.80;99.90
46117;DHT22;32591;48.102;11.772;2023-01-24T12:26:36;2.80;99.90
46117;DHT22;32591;48.102;11.772;2023-01-24T12:29:07;2.80;99.90
46117;DHT22;32591;48.102;11.772;2023-01-24T12:31:39;2.70;99.90
46117;DHT22;32591;48.102;11.772;2023-01-24T12:34:14;2.70;99.90
46117;DHT22;32591;48.102;11.772;2023-01-24T12:36:53;2.70;99.90
46117;DHT22;32591;48.102;11.772;2023-01-24T12:39:23;2.70;99.90
46117;DHT22;32591;48.102;11.772;2023-01-24T12:41:56;2.60;99.90
46117;DHT22;32591;48.102;11.772;2023-01-24T12:44:27;2.70;99.90
46117;DHT22;32591;48.102;11.772;2023-01-24T12:46:59;2.80;99.90
46117;DHT22;32591;48.102;11.772;2023-01-24T12:49:36;2.80;99.90
46117;DHT22;32591;48.102;11.772;2023-01-24T12:52:07;2.80;99.90
46117;DHT22;32591;48.102;11.772;2023-01-24T12:54:40;2.80;99.90
46117;DHT22;32591;48.102;11.772;2023-01-24T12:57:12;2.80;99.90
46117;DHT22;32591;48.102;11.772;2023-01-24T12:59:41;2.90;99.90
46117;DHT22;32591;48.102;11.772;2023-01-24T13:05:17;2.90;99.90
46117;DHT22;32591;48.102;11.772;2023-01-24T13:08:02;2.80;99.90
46117;DHT22;32591;48.102;11.772;2023-01-24T13:10:38;2.70;99.90
46117;DHT22;32591;48.102;11.772;2023-01-24T13:13:13;2.70;99.90
46117;DHT22;32591;48.102;11.772;2023-01-24T13:15:47;2.70;99.90
46117;DHT22;32591;48.102;11.772;2023-01-24T13:18:27;2.70;99.90
46117;DHT22;32591;48.102;11.772;2023-01-24T13:21:08;2.70;99.90
46117;DHT22;32591;48.102;11.772;2023-01-24T13:23:52;2.70;99.90
46117;DHT22;32591;48.102;11.772;2023-01-24T13:26:34;2.80;99.90
46117;DHT22;32591;48.102;11.772;2023-01-24T13:29:12;2.80;99.90
46117;DHT22;32591;48.102;11.772;2023-01-24T13:31:46;2.80;99.90
46117;DHT22;32591;48.102;11.772;2023-01-24T13:34:19;2.80;99.90
46117;DHT22;32591;48.102;11.772;2023-01-24T13:36:49;2.80;99.90
46117;DHT22;32591;48.102;11.772;2023-01-24T13:39:28;2.80;99.90
46117;DHT22;32591;48.102;11.772;2023-01-24T13:42:00;2.60;99.90
46117;DHT22;32591;48.102;11.772;2023-01-24T13:44:30;2.60;99.90
46117;DHT22;32591;48.102;11.772;2023-01-24T13:46:59;2.60;99.90
46117;DHT22;32591;48.102;11.772;2023-01-24T13:49:31;2.60;99.90
46117;DHT22;32591;48.102;11.772;2023-01-24T13:55:04;2.70;99.90
46117;DHT22;32591;48.102;11.772;2023-01-24T13:58:19;2.70;99.90
46117;DHT22;32591;48.102;11.772;2023-01-24T14:00:47;2.70;99.90
46117;DHT22;32591;48.102;11.772;2023-01-24T14:03:17;2.50;99.90
46117;DHT22;32591;48.102;11.772;2023-01-24T14:05:47;2.40;99.90
46117;DHT22;32591;48.102;11.772;2023-01-24T14:11:26;2.50;99.90
46117;DHT22;32591;48.102;11.772;2023-01-24T14:13:58;2.50;99.90
46117;DHT22;32591;48.102;11.772;2023-01-24T14:19:24;2.50;99.90
46117;DHT22;32591;48.102;11.772;2023-01-24T14:21:55;2.50;99.90
46117;DHT22;32591;48.102;11.772;2023-01-24T14:24:26;2.50;99.90
46117;DHT22;32591;48.102;11.772;2023-01-24T14:26:56;2.40;99.90
46117;DHT22;32591;48.102;11.772;2023-01-24T14:29:28;2.40;99.90
46117;DHT22;32591;48.102;11.772;2023-01-24T14:32:03;2.40;99.90
46117;DHT22;32591;48.102;11.772;2023-01-24T14:34:33;2.40;99.90
46117;DHT22;32591;48.102;11.772;2023-01-24T14:37:04;2.50;99.90
46117;DHT22;32591;48.102;11.772;2023-01-24T14:39:34;2.50;99.90
46117;DHT22;32591;48.102;11.772;2023-01-24T14:42:03;2.50;99.90
46117;DHT22;32591;48.102;11.772;2023-01-24T14:44:32;2.60;99.90
46117;DHT22;32591;48.102;11.772;2023-01-24T14:47:00;2.60;99.90
46117;DHT22;32591;48.102;11.772;2023-01-24T14:49:30;2.70;99.90
46117;DHT22;32591;48.102;11.772;2023-01-24T14:51:58;2.70;99.90
46117;DHT22;32591;48.102;11.772;2023-01-24T14:54:25;2.70;99.90
46117;DHT22;32591;48.102;11.772;2023-01-24T14:56:52;2.70;99.90
46117;DHT22;32591;48.102;11.772;2023-01-24T14:59:20;2.70;99.90
46117;DHT22;32591;48.102;11.772;2023-01-24T15:01:49;2.70;99.90
46117;DHT22;32591;48.102;11.772;2023-01-24T15:04:25;2.60;99.90
46117;DHT22;32591;48.102;11.772;2023-01-24T15:07:03;2.60;99.90
46117;DHT22;32591;48.102;11.772;2023-01-24T15:09:31;2.60;99.90
46117;DHT22;32591;48.102;11.772;2023-01-24T15:12:09;2.70;99.90
46117;DHT22;32591;48.102;11.772;2023-01-24T15:14:39;2.80;99.90
46117;DHT22;32591;48.102;11.772;2023-01-24T15:17:14;2.70;99.90
46117;DHT22;32591;48.102;11.772;2023-01-24T15:19:45;2.60;99.90
46117;DHT22;32591;48.102;11.772;2023-01-24T15:22:17;2.50;99.90
46117;DHT22;32591;48.102;11.772;2023-01-24T15:24:48;2.50;99.90
46117;DHT22;32591;48.102;11.772;2023-01-24T15:27:19;2.50;99.90
46117;DHT22;32591;48.102;11.772;2023-01-24T15:30:01;2.60;99.90
46117;DHT22;32591;48.102;11.772;2023-01-24T15:32:37;2.60;99.90
46117;DHT22;32591;48.102;11.772;2023-01-24T15:35:12;2.50;99.90
46117;DHT22;32591;48.102;11.772;2023-01-24T15:38:06;2.50;99.90
46117;DHT22;32591;48.102;11.772;2023-01-24T15:40:46;2.40;99.90
46117;DHT22;32591;48.102;11.772;2023-01-24T15:43:30;2.30;99.90
46117;DHT22;32591;48.102;11.772;2023-01-24T15:46:18;2.30;99.90
46117;DHT22;32591;48.102;11.772;2023-01-24T15:49:05;2.30;99.90
46117;DHT22;32591;48.102;11.772;2023-01-24T15:51:43;2.30;99.90
46117;DHT22;32591;48.102;11.772;2023-01-24T15:54:11;2.30;99.90
46117;DHT22;32591;48.102;11.772;2023-01-24T15:56:39;2.20;99.90
46117;DHT22;32591;48.102;11.772;2023-01-24T15:59:10;2.20;99.90
46117;DHT22;32591;48.102;11.772;2023-01-24T16:01:42;2.30;99.90
46117;DHT22;32591;48.102;11.772;2023-01-24T16:04:10;2.30;99.90
46117;DHT22;32591;48.102;11.772;2023-01-24T16:06:39;2.30;99.90
46117;DHT22;32591;48.102;11.772;2023-01-24T16:09:06;2.30;99.90
46117;DHT22;32591;48.102;11.772;2023-01-24T16:11:34;2.30;99.90
46117;DHT22;32591;48.102;11.772;2023-01-24T16:14:01;2.30;99.90
46117;DHT22;32591;48.102;11.772;2023-01-24T16:16:28;2.20;99.90